createdAt,value
2019-02-02T00:00:37.590Z,19.40
2019-02-02T00:03:07.862Z,19.30
2019-02-02T00:05:36.460Z,20.10
2019-02-02T00:08:06.608Z,20.50
2019-02-02T00:10:35.130Z,21.03
2019-02-02T00:13:03.802Z,22.47
2019-02-02T00:15:32.338Z,21.33
2019-02-02T00:18:00.756Z,21.23
2019-02-02T00:20:29.147Z,21.77
2019-02-02T00:22:57.577Z,22.93
2019-02-02T00:25:26.007Z,21.80
2019-02-02T00:27:54.382Z,21.53
2019-02-02T00:30:22.797Z,20.60
2019-02-02T00:32:51.202Z,22.53
2019-02-02T00:35:19.860Z,20.83
2019-02-02T00:37:48.258Z,19.73
2019-02-02T00:40:18.454Z,20.30
2019-02-02T00:42:46.861Z,20.07
2019-02-02T00:45:20.332Z,19.30
2019-02-02T00:47:48.823Z,18.97
2019-02-02T00:50:17.847Z,19.23
2019-02-02T00:52:46.246Z,18.97
2019-02-02T00:55:16.399Z,20.60
2019-02-02T00:57:52.988Z,20.43
2019-02-02T01:00:20.641Z,19.40
2019-02-02T01:02:49.113Z,20.23
2019-02-02T01:05:19.755Z,19.93
2019-02-02T01:07:48.490Z,19.33
2019-02-02T01:10:34.383Z,18.70
2019-02-02T01:13:02.914Z,19.87
2019-02-02T01:15:31.566Z,18.93
2019-02-02T01:18:01.459Z,18.57
2019-02-02T01:20:30.840Z,18.07
2019-02-02T01:22:59.238Z,18.77
2019-02-02T01:25:27.708Z,18.77
2019-02-02T01:28:04.780Z,18.87
2019-02-02T01:30:26.537Z,19.33
2019-02-02T01:32:54.943Z,20.30
2019-02-02T01:35:23.526Z,20.77
2019-02-02T01:37:52.006Z,20.67
2019-02-02T01:40:25.923Z,20.83
2019-02-02T01:42:54.397Z,19.13
2019-02-02T01:45:28.038Z,21.50
2019-02-02T01:47:56.765Z,21.47
2019-02-02T01:50:26.710Z,19.90
2019-02-02T01:52:55.263Z,19.50
2019-02-02T01:55:43.342Z,20.47
2019-02-02T01:58:17.000Z,21.30
2019-02-02T02:00:41.993Z,21.37
2019-02-02T02:03:10.410Z,22.43
2019-02-02T02:05:38.836Z,21.33
2019-02-02T02:08:07.232Z,20.53
2019-02-02T02:10:35.802Z,20.80
2019-02-02T02:13:04.441Z,21.63
2019-02-02T02:15:32.847Z,23.03
2019-02-02T02:18:01.258Z,22.27
2019-02-02T02:20:29.666Z,22.53
2019-02-02T02:22:58.186Z,23.60
2019-02-02T02:25:26.577Z,22.77
2019-02-02T02:27:54.978Z,21.40
2019-02-02T02:30:24.154Z,21.77
2019-02-02T02:32:53.412Z,21.43
2019-02-02T02:35:21.820Z,22.20
2019-02-02T02:37:50.513Z,20.87
2019-02-02T02:40:20.762Z,22.10
2019-02-02T02:42:49.514Z,21.77
2019-02-02T02:45:18.250Z,20.43
2019-02-02T02:47:46.803Z,21.27
2019-02-02T02:50:17.306Z,21.83
2019-02-02T02:52:45.770Z,22.87
2019-02-02T02:55:16.225Z,22.10
2019-02-02T02:57:44.838Z,22.70
2019-02-02T03:00:18.915Z,21.43
2019-02-02T03:02:47.606Z,20.43
2019-02-02T03:05:16.745Z,20.87
2019-02-02T03:07:45.423Z,17.73
2019-02-02T03:10:19.289Z,17.63
2019-02-02T03:12:48.025Z,18.27
2019-02-02T03:15:17.778Z,18.07
2019-02-02T03:17:47.027Z,18.20
2019-02-02T03:20:16.366Z,19.07
2019-02-02T03:22:45.629Z,18.33
2019-02-02T03:25:19.397Z,17.27
2019-02-02T03:27:47.811Z,18.10
2019-02-02T03:30:18.735Z,20.00
2019-02-02T03:32:47.403Z,20.83
2019-02-02T03:35:23.550Z,19.60
2019-02-02T03:37:52.611Z,19.63
2019-02-02T03:40:23.355Z,20.30
2019-02-02T03:42:52.038Z,20.67
2019-02-02T03:45:24.162Z,19.90
2019-02-02T03:47:53.616Z,20.97
2019-02-02T03:50:22.074Z,19.60
2019-02-02T03:52:50.619Z,20.07
2019-02-02T03:55:19.203Z,18.60
2019-02-02T03:57:47.782Z,18.83
2019-02-02T04:00:23.659Z,18.33
2019-02-02T04:03:11.415Z,18.80
2019-02-02T04:05:40.054Z,17.00
2019-02-02T04:08:08.518Z,17.00
2019-02-02T04:10:36.923Z,16.33
2019-02-02T04:13:05.331Z,16.13
2019-02-02T04:15:33.752Z,17.10
2019-02-02T04:18:02.138Z,17.10
2019-02-02T04:20:30.628Z,16.67
2019-02-02T04:22:59.023Z,16.43
2019-02-02T04:25:27.420Z,16.20
2019-02-02T04:27:55.826Z,16.33
2019-02-02T04:30:26.461Z,15.37
2019-02-02T04:32:55.026Z,14.93
2019-02-02T04:35:23.703Z,15.73
2019-02-02T04:37:52.187Z,15.53
2019-02-02T04:40:20.734Z,16.97
2019-02-02T04:42:49.126Z,16.63
2019-02-02T04:45:18.370Z,16.07
2019-02-02T04:48:06.119Z,15.00
2019-02-02T04:50:34.531Z,14.67
2019-02-02T04:53:02.980Z,13.67
2019-02-02T04:55:31.394Z,14.07
2019-02-02T04:57:59.792Z,13.43
2019-02-02T05:00:28.378Z,13.43
2019-02-02T05:02:56.773Z,14.17
2019-02-02T05:05:25.230Z,14.10
2019-02-02T05:07:53.981Z,15.37
2019-02-02T05:10:23.713Z,15.33
2019-02-02T05:12:52.651Z,14.57
2019-02-02T05:15:21.405Z,14.70
2019-02-02T05:17:50.142Z,13.43
2019-02-02T05:20:19.980Z,15.10
2019-02-02T05:22:48.759Z,15.10
2019-02-02T05:25:17.611Z,16.20
2019-02-02T05:27:46.073Z,15.60
2019-02-02T05:30:20.282Z,17.63
2019-02-02T05:32:49.462Z,18.57
2019-02-02T05:35:17.853Z,18.80
2019-02-02T05:37:46.254Z,18.20
2019-02-02T05:40:19.677Z,17.87
2019-02-02T05:42:48.204Z,16.70
2019-02-02T05:45:18.630Z,14.90
2019-02-02T05:47:47.234Z,15.73
2019-02-02T05:50:17.574Z,14.33
2019-02-02T05:52:46.082Z,15.57
2019-02-02T05:55:16.339Z,15.97
2019-02-02T05:57:44.737Z,15.93
2019-02-02T06:00:23.650Z,16.20
2019-02-02T06:02:52.152Z,16.10
2019-02-02T06:05:20.790Z,15.93
2019-02-02T06:07:49.187Z,16.63
2019-02-02T06:10:19.121Z,18.23
2019-02-02T06:12:47.531Z,16.20
2019-02-02T06:15:16.247Z,17.00
2019-02-02T06:17:44.640Z,17.03
2019-02-02T06:20:15.191Z,16.93
2019-02-02T06:22:43.609Z,16.77
2019-02-02T06:25:14.054Z,16.30
2019-02-02T06:27:42.460Z,16.20
2019-02-02T06:30:18.918Z,16.60
2019-02-02T06:32:47.480Z,15.57
2019-02-02T06:35:17.213Z,16.50
2019-02-02T06:37:45.793Z,14.33
2019-02-02T06:40:15.531Z,14.37
2019-02-02T06:42:43.933Z,13.80
2019-02-02T06:45:15.635Z,13.50
2019-02-02T06:47:44.414Z,13.00
2019-02-02T06:50:15.354Z,12.20
2019-02-02T06:52:43.851Z,9.80
2019-02-02T06:55:14.491Z,9.93
2019-02-02T06:57:42.880Z,8.20
2019-02-02T07:00:17.203Z,9.20
2019-02-02T07:02:45.590Z,8.27
2019-02-02T07:05:14.244Z,9.53
2019-02-02T07:07:42.643Z,8.13
2019-02-02T07:10:20.007Z,8.80
2019-02-02T07:12:48.470Z,7.97
2019-02-02T07:15:19.314Z,8.57
2019-02-02T07:17:47.730Z,8.53
2019-02-02T07:20:16.212Z,8.20
2019-02-02T07:22:44.614Z,9.47
2019-02-02T07:25:13.542Z,8.27
2019-02-02T07:27:42.122Z,8.10
2019-02-02T07:30:13.557Z,9.20
2019-02-02T07:32:41.962Z,7.80
2019-02-02T07:35:11.822Z,9.07
2019-02-02T07:37:40.306Z,9.20
2019-02-02T07:40:14.179Z,9.13
2019-02-02T07:42:42.562Z,9.13
2019-02-02T07:45:16.470Z,9.47
2019-02-02T07:47:44.853Z,8.67
2019-02-02T07:50:15.293Z,8.83
2019-02-02T07:52:44.558Z,8.57
2019-02-02T07:55:16.260Z,8.87
2019-02-02T07:57:44.658Z,9.33
2019-02-02T08:00:16.094Z,10.43
2019-02-02T08:02:44.500Z,9.57
2019-02-02T08:05:13.054Z,10.37
2019-02-02T08:07:41.450Z,9.73
2019-02-02T08:10:12.395Z,9.70
2019-02-02T08:12:40.858Z,10.10
2019-02-02T08:15:12.569Z,9.53
2019-02-02T08:17:40.970Z,11.57
2019-02-02T08:20:12.180Z,9.77
2019-02-02T08:22:40.637Z,10.93
2019-02-02T08:25:28.387Z,10.77
2019-02-02T08:27:56.843Z,9.20
2019-02-02T08:30:27.838Z,8.50
2019-02-02T08:32:56.310Z,8.73
2019-02-02T08:35:24.774Z,7.87
2019-02-02T08:37:53.305Z,7.60
2019-02-02T08:40:21.779Z,8.50
2019-02-02T08:42:50.242Z,8.60
2019-02-02T08:45:18.693Z,8.27
2019-02-02T08:47:47.544Z,8.60
2019-02-02T08:50:21.810Z,7.47
2019-02-02T08:52:50.240Z,7.63
2019-02-02T08:55:18.739Z,7.83
2019-02-02T08:57:47.160Z,8.10
2019-02-02T09:00:20.130Z,8.63
2019-02-02T09:02:48.917Z,9.00
2019-02-02T09:05:20.111Z,9.43
2019-02-02T09:07:48.598Z,10.63
2019-02-02T09:10:22.576Z,10.43
2019-02-02T09:12:51.045Z,10.27
2019-02-02T09:15:20.103Z,11.27
2019-02-02T09:17:48.861Z,13.50
2019-02-02T09:20:17.382Z,12.60
2019-02-02T09:22:46.818Z,13.77
2019-02-02T09:25:17.630Z,13.60
2019-02-02T09:27:46.174Z,12.40
2019-02-02T09:30:29.166Z,12.67
2019-02-02T09:32:57.588Z,11.50
2019-02-02T09:35:26.055Z,12.83
2019-02-02T09:37:54.450Z,12.90
2019-02-02T09:40:25.445Z,11.43
2019-02-02T09:42:53.684Z,14.73
2019-02-02T09:45:23.422Z,13.33
2019-02-02T09:47:51.889Z,13.47
2019-02-02T09:50:22.914Z,12.90
2019-02-02T09:52:51.390Z,13.57
2019-02-02T09:55:21.857Z,14.50
2019-02-02T09:57:55.038Z,13.43
2019-02-02T10:00:26.156Z,13.80
2019-02-02T10:02:54.732Z,12.60
2019-02-02T10:05:23.130Z,14.20
2019-02-02T10:07:51.601Z,14.67
2019-02-02T10:10:25.298Z,13.63
2019-02-02T10:12:53.691Z,14.53
2019-02-02T10:15:22.077Z,15.07
2019-02-02T10:17:50.762Z,14.73
2019-02-02T10:20:21.304Z,14.67
2019-02-02T10:22:49.871Z,14.63
2019-02-02T10:25:21.123Z,14.10
2019-02-02T10:27:49.838Z,13.60
2019-02-02T10:30:24.102Z,14.10
2019-02-02T10:32:52.562Z,12.93
2019-02-02T10:35:20.961Z,12.50
2019-02-02T10:37:49.362Z,12.63
2019-02-02T10:40:17.756Z,13.10
2019-02-02T10:42:46.238Z,12.27
2019-02-02T10:45:16.475Z,12.33
2019-02-02T10:47:45.051Z,13.07
2019-02-02T10:50:16.483Z,11.80
2019-02-02T10:52:45.219Z,12.63
2019-02-02T10:55:15.062Z,12.70
2019-02-02T10:57:43.835Z,13.73
2019-02-02T11:00:21.005Z,13.33
2019-02-02T11:02:49.399Z,14.27
2019-02-02T11:05:17.988Z,14.23
2019-02-02T11:07:46.658Z,14.63
2019-02-02T11:10:18.640Z,13.97
2019-02-02T11:12:47.648Z,13.57
2019-02-02T11:15:18.742Z,13.23
2019-02-02T11:17:47.205Z,13.00
2019-02-02T11:20:20.861Z,12.40
2019-02-02T11:22:49.778Z,11.87
2019-02-02T11:25:18.502Z,11.20
2019-02-02T11:27:47.013Z,11.93
2019-02-02T11:30:20.058Z,11.83
2019-02-02T11:32:48.483Z,11.77
2019-02-02T11:35:18.718Z,12.47
2019-02-02T11:37:47.194Z,12.17
2019-02-02T11:40:24.326Z,13.23
2019-02-02T11:42:52.802Z,13.23
2019-02-02T11:45:21.338Z,13.57
2019-02-02T11:47:49.749Z,14.37
2019-02-02T11:50:20.090Z,15.03
2019-02-02T11:52:48.494Z,15.13
2019-02-02T11:55:19.044Z,15.70
2019-02-02T11:57:49.854Z,15.50
2019-02-02T12:00:22.818Z,14.50
2019-02-02T12:02:51.317Z,15.30
2019-02-02T12:05:19.787Z,15.37
2019-02-02T12:07:48.254Z,14.90
2019-02-02T12:10:21.946Z,15.43
2019-02-02T12:12:50.473Z,14.97
2019-02-02T12:15:19.823Z,15.43
2019-02-02T12:17:48.531Z,16.43
2019-02-02T12:20:18.930Z,15.23
2019-02-02T12:22:47.672Z,15.77
2019-02-02T12:25:16.197Z,15.27
2019-02-02T12:27:45.433Z,15.17
2019-02-02T12:30:22.327Z,14.00
2019-02-02T12:32:50.730Z,14.00
2019-02-02T12:35:24.298Z,13.93
2019-02-02T12:37:52.759Z,14.60
2019-02-02T12:40:23.199Z,12.47
2019-02-02T12:42:51.764Z,14.03
2019-02-02T12:45:26.434Z,15.27
2019-02-02T12:47:55.169Z,13.50
2019-02-02T12:50:23.562Z,16.03
2019-02-02T12:52:51.979Z,16.60
2019-02-02T12:55:20.361Z,16.70
2019-02-02T12:58:08.178Z,15.97
2019-02-02T13:00:36.642Z,16.70
2019-02-02T13:03:05.488Z,15.30
2019-02-02T13:05:33.899Z,17.07
2019-02-02T13:08:05.191Z,14.43
2019-02-02T13:10:32.494Z,14.77
2019-02-02T13:13:01.094Z,14.57
2019-02-02T13:15:29.490Z,15.60
2019-02-02T13:17:57.886Z,14.57
2019-02-02T13:20:26.669Z,14.63
2019-02-02T13:22:55.061Z,15.23
2019-02-02T13:25:26.592Z,16.17
2019-02-02T13:27:54.987Z,15.87
2019-02-02T13:30:26.142Z,14.73
2019-02-02T13:32:54.770Z,14.60
2019-02-02T13:35:24.119Z,14.93
2019-02-02T13:37:52.694Z,14.73
2019-02-02T13:40:23.121Z,15.10
2019-02-02T13:42:51.804Z,14.70
2019-02-02T13:45:22.201Z,14.20
2019-02-02T13:47:51.426Z,15.97
2019-02-02T13:50:20.273Z,15.87
2019-02-02T13:52:50.907Z,15.20
2019-02-02T13:55:19.378Z,15.40
2019-02-02T13:57:47.862Z,17.17
2019-02-02T14:00:27.717Z,15.40
2019-02-02T14:03:02.739Z,16.43
2019-02-02T14:05:26.266Z,14.97
2019-02-02T14:07:55.136Z,13.80
2019-02-02T14:10:25.773Z,14.13
2019-02-02T14:12:54.470Z,11.53
2019-02-02T14:15:22.946Z,10.63
2019-02-02T14:17:51.424Z,11.53
2019-02-02T14:20:20.115Z,12.10
2019-02-02T14:22:48.875Z,12.33
2019-02-02T14:25:18.215Z,12.60
2019-02-02T14:27:46.690Z,11.40
2019-02-02T14:30:20.611Z,9.23
2019-02-02T14:32:49.078Z,9.17
2019-02-02T14:35:25.274Z,9.07
2019-02-02T14:37:53.759Z,9.30
2019-02-02T14:40:22.224Z,10.53
2019-02-02T14:42:50.612Z,8.57
2019-02-02T14:45:21.163Z,9.23
2019-02-02T14:47:49.670Z,9.33
2019-02-02T14:50:19.722Z,8.63
2019-02-02T14:52:48.871Z,9.20
2019-02-02T14:55:19.609Z,8.80
2019-02-02T14:57:48.014Z,9.50
2019-02-02T15:00:18.741Z,9.37
2019-02-02T15:02:47.190Z,9.67
2019-02-02T15:05:16.043Z,8.10
2019-02-02T15:07:44.459Z,8.70
2019-02-02T15:10:14.382Z,8.50
2019-02-02T15:12:43.175Z,9.17
2019-02-02T15:15:14.500Z,11.13
2019-02-02T15:17:44.585Z,11.00
2019-02-02T15:20:22.777Z,9.60
2019-02-02T15:22:51.157Z,9.37
2019-02-02T15:25:19.696Z,8.93
2019-02-02T15:27:48.099Z,9.97
2019-02-02T15:30:19.655Z,9.40
2019-02-02T15:32:48.058Z,8.90
2019-02-02T15:35:16.454Z,10.10
2019-02-02T15:37:45.215Z,9.87
2019-02-02T15:40:15.958Z,9.73
2019-02-02T15:42:44.346Z,9.60
2019-02-02T15:45:17.940Z,9.83
2019-02-02T15:47:46.407Z,10.33
2019-02-02T15:50:16.355Z,9.63
2019-02-02T15:52:45.622Z,10.07
2019-02-02T15:55:16.423Z,10.20
2019-02-02T15:57:44.818Z,9.67
2019-02-02T16:00:34.107Z,10.90
2019-02-02T16:03:02.490Z,11.57
2019-02-02T16:05:31.327Z,11.27
2019-02-02T16:08:01.858Z,11.20
2019-02-02T16:10:32.118Z,10.43
2019-02-02T16:13:01.190Z,10.90
2019-02-02T16:15:29.582Z,10.93
2019-02-02T16:17:57.990Z,10.87
2019-02-02T16:20:32.310Z,11.27
2019-02-02T16:23:00.701Z,11.20
2019-02-02T16:25:29.109Z,12.00
2019-02-02T16:27:57.513Z,10.93
2019-02-02T16:30:28.489Z,11.30
2019-02-02T16:32:56.964Z,10.93
2019-02-02T16:35:25.538Z,11.53
2019-02-02T16:37:53.954Z,12.47
2019-02-02T16:40:30.466Z,12.77
2019-02-02T16:42:59.169Z,13.80
2019-02-02T16:45:30.295Z,11.73
2019-02-02T16:47:58.813Z,13.33
2019-02-02T16:50:27.342Z,13.43
2019-02-02T16:52:55.733Z,13.50
2019-02-02T16:55:24.227Z,14.03
2019-02-02T16:57:52.708Z,14.00
2019-02-02T17:00:25.758Z,12.93
2019-02-02T17:02:54.226Z,14.03
2019-02-02T17:05:22.860Z,13.83
2019-02-02T17:07:51.729Z,14.30
2019-02-02T17:10:25.882Z,14.30
2019-02-02T17:12:54.351Z,13.23
2019-02-02T17:15:42.134Z,15.03
2019-02-02T17:18:10.538Z,14.70
2019-02-02T17:20:41.102Z,14.50
2019-02-02T17:23:09.482Z,15.20
2019-02-02T17:25:38.000Z,16.37
2019-02-02T17:28:07.181Z,15.90
2019-02-02T17:30:35.619Z,13.73
2019-02-02T17:33:09.594Z,23.30
2019-02-02T17:35:38.123Z,16.60
2019-02-02T17:38:06.611Z,22.47
2019-02-02T17:40:35.082Z,20.23
2019-02-02T17:43:03.491Z,21.23
2019-02-02T17:45:31.903Z,20.43
2019-02-02T17:48:00.406Z,17.40
2019-02-02T17:50:30.140Z,18.67
2019-02-02T17:52:58.558Z,19.80
2019-02-02T17:55:26.954Z,18.23
2019-02-02T17:57:55.458Z,18.63
2019-02-02T18:00:39.845Z,19.43
2019-02-02T18:03:09.282Z,18.33
2019-02-02T18:05:37.795Z,17.40
2019-02-02T18:08:06.426Z,18.50
2019-02-02T18:10:34.825Z,19.83
2019-02-02T18:13:03.267Z,18.40
2019-02-02T18:15:31.674Z,20.17
2019-02-02T18:18:02.353Z,19.73
2019-02-02T18:20:30.583Z,21.57
2019-02-02T18:22:58.990Z,25.53
2019-02-02T18:25:27.470Z,24.97
2019-02-02T18:27:55.904Z,24.47
2019-02-02T18:30:28.466Z,24.27
2019-02-02T18:32:57.586Z,22.77
2019-02-02T18:35:26.085Z,23.80
2019-02-02T18:37:54.477Z,24.17
2019-02-02T18:40:24.129Z,25.53
2019-02-02T18:42:52.654Z,25.03
2019-02-02T18:45:27.943Z,27.47
2019-02-02T18:47:56.415Z,25.77
2019-02-02T18:50:24.942Z,25.47
2019-02-02T18:52:55.857Z,27.83
2019-02-02T18:55:30.181Z,26.97
2019-02-02T18:57:58.841Z,25.80
2019-02-02T19:00:27.319Z,25.73
2019-02-02T19:02:55.754Z,24.67
2019-02-02T19:05:24.171Z,25.10
2019-02-02T19:07:52.575Z,25.27
2019-02-02T19:10:29.641Z,24.10
2019-02-02T19:12:58.123Z,24.37
2019-02-02T19:15:26.550Z,26.97
2019-02-02T19:17:54.938Z,27.13
2019-02-02T19:20:23.700Z,25.03
2019-02-02T19:22:52.085Z,26.67
2019-02-02T19:25:20.489Z,26.03
2019-02-02T19:27:48.962Z,26.13
2019-02-02T19:30:25.797Z,28.33
2019-02-02T19:32:54.200Z,21.47
2019-02-02T19:35:22.578Z,20.23
2019-02-02T19:37:50.986Z,20.77
2019-02-02T19:40:19.378Z,20.00
2019-02-02T19:42:47.855Z,18.40
2019-02-02T19:45:21.470Z,18.90
2019-02-02T19:47:49.864Z,19.10
2019-02-02T19:50:20.776Z,18.47
2019-02-02T19:52:49.515Z,20.47
2019-02-02T19:55:17.894Z,19.37
2019-02-02T19:57:46.379Z,18.53
2019-02-02T20:00:17.721Z,18.17
2019-02-02T20:02:46.119Z,18.73
2019-02-02T20:05:14.674Z,22.63
2019-02-02T20:07:43.082Z,25.27
2019-02-02T20:10:16.547Z,24.07
2019-02-02T20:12:45.027Z,23.47
2019-02-02T20:15:21.610Z,23.77
2019-02-02T20:17:50.012Z,28.07
2019-02-02T20:20:21.478Z,50.10
2019-02-02T20:22:50.111Z,41.07
2019-02-02T20:25:18.513Z,37.53
2019-02-02T20:27:46.925Z,36.13
2019-02-02T20:30:20.095Z,32.10
2019-02-02T20:32:48.501Z,27.20
2019-02-02T20:35:17.124Z,22.63
2019-02-02T20:37:45.539Z,24.00
2019-02-02T20:40:15.980Z,24.43
2019-02-02T20:42:44.381Z,23.10
2019-02-02T20:45:21.789Z,23.53
2019-02-02T20:47:50.179Z,22.53
2019-02-02T20:50:19.240Z,22.70
2019-02-02T20:52:48.042Z,20.37
2019-02-02T20:55:28.231Z,20.37
2019-02-02T20:57:56.630Z,26.33
2019-02-02T21:00:27.089Z,25.37
2019-02-02T21:02:55.589Z,22.83
2019-02-02T21:05:24.213Z,23.93
2019-02-02T21:07:52.625Z,26.50
2019-02-02T21:10:23.073Z,29.93
2019-02-02T21:12:51.529Z,27.73
2019-02-02T21:15:19.980Z,22.63
2019-02-02T21:17:48.464Z,20.67
2019-02-02T21:20:19.110Z,19.10
2019-02-02T21:22:47.574Z,19.00
2019-02-02T21:25:16.721Z,19.17
2019-02-02T21:27:45.146Z,18.87
2019-02-02T21:30:22.733Z,19.63
2019-02-02T21:32:51.125Z,20.13
2019-02-02T21:35:19.990Z,20.63
2019-02-02T21:37:48.584Z,19.13
2019-02-02T21:40:25.090Z,19.73
2019-02-02T21:42:53.578Z,20.43
2019-02-02T21:45:21.993Z,22.83
2019-02-02T21:47:50.774Z,22.77
2019-02-02T21:50:21.786Z,22.17
2019-02-02T21:52:50.313Z,22.03
2019-02-02T21:55:21.113Z,21.67
2019-02-02T21:57:49.605Z,23.47
2019-02-02T22:00:26.165Z,23.00
2019-02-02T22:02:54.637Z,20.43
2019-02-02T22:05:23.027Z,21.10
2019-02-02T22:07:51.446Z,19.43
2019-02-02T22:10:20.026Z,20.27
2019-02-02T22:12:48.490Z,19.20
2019-02-02T22:15:22.596Z,18.60
2019-02-02T22:17:52.557Z,20.13
2019-02-02T22:20:40.324Z,21.23
2019-02-02T22:23:09.236Z,21.33
2019-02-02T22:25:37.666Z,22.67
2019-02-02T22:28:06.163Z,22.43
2019-02-02T22:30:36.975Z,20.20
2019-02-02T22:33:05.719Z,23.67
2019-02-02T22:35:34.365Z,24.60
2019-02-02T22:38:02.833Z,23.37
2019-02-02T22:40:31.238Z,21.90
2019-02-02T22:42:59.658Z,25.93
2019-02-02T22:45:28.048Z,25.10
2019-02-02T22:47:56.510Z,25.00
2019-02-02T22:50:26.462Z,22.93
2019-02-02T22:52:55.144Z,23.03
2019-02-02T22:55:24.698Z,23.83
2019-02-02T22:57:53.431Z,23.70
2019-02-02T23:00:48.771Z,25.50
2019-02-02T23:03:25.709Z,25.40
2019-02-02T23:06:00.231Z,25.50
2019-02-02T23:08:31.734Z,37.37
2019-02-02T23:11:11.734Z,29.10
2019-02-02T23:13:45.947Z,27.13
2019-02-02T23:16:27.813Z,28.00
2019-02-02T23:18:56.652Z,24.97
2019-02-02T23:21:25.119Z,29.60
2019-02-02T23:23:53.510Z,25.13
2019-02-02T23:26:22.002Z,21.87
2019-02-02T23:29:09.734Z,21.83
2019-02-02T23:31:38.141Z,22.00
2019-02-02T23:34:06.570Z,21.37
2019-02-02T23:36:34.962Z,19.77
2019-02-02T23:39:04.908Z,21.87
2019-02-02T23:41:33.322Z,21.83
2019-02-02T23:44:01.706Z,23.97
2019-02-02T23:46:30.097Z,21.80
2019-02-02T23:48:58.502Z,20.00
2019-02-02T23:51:26.918Z,22.67
2019-02-02T23:53:55.309Z,21.87
2019-02-02T23:56:23.698Z,21.10
2019-02-02T23:58:52.098Z,21.10
